sensor_id;sensor_type;location;lat;lon;timestamp;P1;durP1;ratioP1;P2;durP2;ratioP2
12762;SDS011;6445;52.490;13.378;2023-12-20T00:02:20;10.45;;;7.95;;
12762;SDS011;6445;52.490;13.378;2023-12-20T00:04:45;11.07;;;8.13;;
12762;SDS011;6445;52.490;13.378;2023-12-20T00:07:10;10.85;;;8.20;;
12762;SDS011;6445;52.490;13.378;2023-12-20T00:09:36;11.75;;;8.85;;
12762;SDS011;6445;52.490;13.378;2023-12-20T00:12:01;12.00;;;9.18;;
12762;SDS011;6445;52.490;13.378;2023-12-20T00:14:26;12.63;;;8.23;;
12762;SDS011;6445;52.490;13.378;2023-12-20T00:16:51;11.88;;;8.65;;
12762;SDS011;6445;52.490;13.378;2023-12-20T00:19:17;11.80;;;8.35;;
12762;SDS011;6445;52.490;13.378;2023-12-20T00:21:42;11.45;;;8.18;;
12762;SDS011;6445;52.490;13.378;2023-12-20T00:24:07;10.07;;;8.18;;
12762;SDS011;6445;52.490;13.378;2023-12-20T00:26:33;13.07;;;7.57;;
12762;SDS011;6445;52.490;13.378;2023-12-20T00:28:58;13.35;;;8.07;;
12762;SDS011;6445;52.490;13.378;2023-12-20T00:31:23;11.20;;;8.10;;
12762;SDS011;6445;52.490;13.378;2023-12-20T00:33:48;11.50;;;8.85;;
12762;SDS011;6445;52.490;13.378;2023-12-20T00:36:14;11.18;;;7.90;;
12762;SDS011;6445;52.490;13.378;2023-12-20T00:38:39;10.07;;;7.57;;
12762;SDS011;6445;52.490;13.378;2023-12-20T00:41:04;10.77;;;8.35;;
12762;SDS011;6445;52.490;13.378;2023-12-20T00:43:29;10.35;;;7.72;;
12762;SDS011;6445;52.490;13.378;2023-12-20T00:45:55;10.10;;;7.70;;
12762;SDS011;6445;52.490;13.378;2023-12-20T00:48:20;9.15;;;7.30;;
12762;SDS011;6445;52.490;13.378;2023-12-20T00:50:46;9.05;;;7.38;;
12762;SDS011;6445;52.490;13.378;2023-12-20T00:53:11;8.60;;;6.80;;
12762;SDS011;6445;52.490;13.378;2023-12-20T00:55:36;8.52;;;6.80;;
12762;SDS011;6445;52.490;13.378;2023-12-20T00:58:01;9.93;;;7.65;;
12762;SDS011;6445;52.490;13.378;2023-12-20T01:00:27;9.10;;;6.68;;
12762;SDS011;6445;52.490;13.378;2023-12-20T01:02:52;10.68;;;7.50;;
12762;SDS011;6445;52.490;13.378;2023-12-20T01:05:17;10.13;;;7.38;;
12762;SDS011;6445;52.490;13.378;2023-12-20T01:07:44;9.88;;;7.47;;
12762;SDS011;6445;52.490;13.378;2023-12-20T01:10:09;9.50;;;7.10;;
12762;SDS011;6445;52.490;13.378;2023-12-20T01:12:35;10.27;;;7.85;;
12762;SDS011;6445;52.490;13.378;2023-12-20T01:15:01;10.20;;;7.32;;
12762;SDS011;6445;52.490;13.378;2023-12-20T01:17:26;10.00;;;7.72;;
12762;SDS011;6445;52.490;13.378;2023-12-20T01:19:52;10.02;;;7.80;;
12762;SDS011;6445;52.490;13.378;2023-12-20T01:22:17;10.60;;;7.85;;
12762;SDS011;6445;52.490;13.378;2023-12-20T01:24:42;10.27;;;7.93;;
12762;SDS011;6445;52.490;13.378;2023-12-20T01:27:08;10.50;;;7.85;;
12762;SDS011;6445;52.490;13.378;2023-12-20T01:29:33;11.27;;;8.05;;
12762;SDS011;6445;52.490;13.378;2023-12-20T01:31:58;11.82;;;8.35;;
12762;SDS011;6445;52.490;13.378;2023-12-20T01:34:23;11.32;;;7.85;;
12762;SDS011;6445;52.490;13.378;2023-12-20T01:36:48;10.27;;;7.82;;
12762;SDS011;6445;52.490;13.378;2023-12-20T01:39:14;8.68;;;6.90;;
12762;SDS011;6445;52.490;13.378;2023-12-20T01:41:39;9.57;;;7.20;;
12762;SDS011;6445;52.490;13.378;2023-12-20T01:44:04;10.68;;;7.90;;
12762;SDS011;6445;52.490;13.378;2023-12-20T01:46:29;9.95;;;7.30;;
12762;SDS011;6445;52.490;13.378;2023-12-20T01:48:55;10.00;;;7.18;;
12762;SDS011;6445;52.490;13.378;2023-12-20T01:51:20;9.48;;;6.90;;
12762;SDS011;6445;52.490;13.378;2023-12-20T01:53:46;9.73;;;7.10;;
12762;SDS011;6445;52.490;13.378;2023-12-20T01:56:12;9.90;;;6.90;;
12762;SDS011;6445;52.490;13.378;2023-12-20T01:58:43;10.32;;;6.80;;
12762;SDS011;6445;52.490;13.378;2023-12-20T02:01:09;8.82;;;6.60;;
12762;SDS011;6445;52.490;13.378;2023-12-20T02:03:35;8.52;;;6.40;;
12762;SDS011;6445;52.490;13.378;2023-12-20T02:06:01;10.77;;;7.97;;
12762;SDS011;6445;52.490;13.378;2023-12-20T02:08:27;10.07;;;7.00;;
12762;SDS011;6445;52.490;13.378;2023-12-20T02:10:52;8.85;;;6.70;;
12762;SDS011;6445;52.490;13.378;2023-12-20T02:13:19;9.57;;;6.93;;
12762;SDS011;6445;52.490;13.378;2023-12-20T02:15:44;9.23;;;6.85;;
12762;SDS011;6445;52.490;13.378;2023-12-20T02:18:10;9.18;;;7.05;;
12762;SDS011;6445;52.490;13.378;2023-12-20T02:20:35;8.75;;;6.90;;
12762;SDS011;6445;52.490;13.378;2023-12-20T02:23:00;9.07;;;7.13;;
12762;SDS011;6445;52.490;13.378;2023-12-20T02:25:25;9.27;;;6.85;;
12762;SDS011;6445;52.490;13.378;2023-12-20T02:27:51;9.45;;;6.40;;
12762;SDS011;6445;52.490;13.378;2023-12-20T02:30:17;6.80;;;5.68;;
12762;SDS011;6445;52.490;13.378;2023-12-20T02:32:42;8.80;;;6.15;;
12762;SDS011;6445;52.490;13.378;2023-12-20T02:35:07;7.53;;;5.85;;
12762;SDS011;6445;52.490;13.378;2023-12-20T02:37:33;10.73;;;6.35;;
12762;SDS011;6445;52.490;13.378;2023-12-20T02:39:58;8.63;;;6.57;;
12762;SDS011;6445;52.490;13.378;2023-12-20T02:42:24;9.93;;;7.05;;
12762;SDS011;6445;52.490;13.378;2023-12-20T02:44:49;10.27;;;7.72;;
12762;SDS011;6445;52.490;13.378;2023-12-20T02:47:14;9.93;;;7.28;;
12762;SDS011;6445;52.490;13.378;2023-12-20T02:49:39;15.48;;;8.60;;
12762;SDS011;6445;52.490;13.378;2023-12-20T02:52:05;13.50;;;9.15;;
12762;SDS011;6445;52.490;13.378;2023-12-20T02:54:30;13.85;;;9.38;;
12762;SDS011;6445;52.490;13.378;2023-12-20T02:56:55;16.02;;;9.60;;
12762;SDS011;6445;52.490;13.378;2023-12-20T02:59:20;16.38;;;9.73;;
12762;SDS011;6445;52.490;13.378;2023-12-20T03:01:46;14.63;;;9.15;;
12762;SDS011;6445;52.490;13.378;2023-12-20T03:04:11;15.30;;;9.68;;
12762;SDS011;6445;52.490;13.378;2023-12-20T03:06:37;13.38;;;9.48;;
12762;SDS011;6445;52.490;13.378;2023-12-20T03:09:03;13.80;;;8.38;;
12762;SDS011;6445;52.490;13.378;2023-12-20T03:11:29;15.50;;;9.10;;
12762;SDS011;6445;52.490;13.378;2023-12-20T03:13:55;15.30;;;8.90;;
12762;SDS011;6445;52.490;13.378;2023-12-20T03:16:20;17.73;;;8.75;;
12762;SDS011;6445;52.490;13.378;2023-12-20T03:18:46;14.15;;;7.97;;
12762;SDS011;6445;52.490;13.378;2023-12-20T03:21:11;18.13;;;8.50;;
12762;SDS011;6445;52.490;13.378;2023-12-20T03:23:36;14.90;;;8.23;;
12762;SDS011;6445;52.490;13.378;2023-12-20T03:26:02;11.02;;;6.82;;
12762;SDS011;6445;52.490;13.378;2023-12-20T03:28:27;18.17;;;7.47;;
12762;SDS011;6445;52.490;13.378;2023-12-20T03:30:53;13.70;;;6.38;;
12762;SDS011;6445;52.490;13.378;2023-12-20T03:33:18;16.02;;;6.95;;
12762;SDS011;6445;52.490;13.378;2023-12-20T03:35:43;10.20;;;6.10;;
12762;SDS011;6445;52.490;13.378;2023-12-20T03:38:08;13.93;;;7.13;;
12762;SDS011;6445;52.490;13.378;2023-12-20T03:40:34;10.18;;;6.40;;
12762;SDS011;6445;52.490;13.378;2023-12-20T03:43:00;15.65;;;6.00;;
12762;SDS011;6445;52.490;13.378;2023-12-20T03:45:25;10.25;;;5.68;;
12762;SDS011;6445;52.490;13.378;2023-12-20T03:47:50;11.63;;;5.63;;
12762;SDS011;6445;52.490;13.378;2023-12-20T03:50:20;10.88;;;5.38;;
12762;SDS011;6445;52.490;13.378;2023-12-20T03:52:48;14.43;;;4.85;;
12762;SDS011;6445;52.490;13.378;2023-12-20T03:55:13;9.10;;;4.05;;
12762;SDS011;6445;52.490;13.378;2023-12-20T03:57:38;10.50;;;4.28;;
12762;SDS011;6445;52.490;13.378;2023-12-20T04:00:04;9.27;;;4.63;;
12762;SDS011;6445;52.490;13.378;2023-12-20T04:02:30;16.95;;;4.20;;
12762;SDS011;6445;52.490;13.378;2023-12-20T04:04:55;11.30;;;4.07;;
12762;SDS011;6445;52.490;13.378;2023-12-20T04:07:21;12.80;;;4.13;;
12762;SDS011;6445;52.490;13.378;2023-12-20T04:09:46;14.00;;;4.00;;
12762;SDS011;6445;52.490;13.378;2023-12-20T04:12:13;8.30;;;3.55;;
12762;SDS011;6445;52.490;13.378;2023-12-20T04:14:38;8.55;;;3.60;;
12762;SDS011;6445;52.490;13.378;2023-12-20T04:17:03;9.98;;;3.17;;
12762;SDS011;6445;52.490;13.378;2023-12-20T04:19:28;12.73;;;3.70;;
12762;SDS011;6445;52.490;13.378;2023-12-20T04:21:54;6.63;;;3.60;;
12762;SDS011;6445;52.490;13.378;2023-12-20T04:24:19;8.27;;;3.72;;
12762;SDS011;6445;52.490;13.378;2023-12-20T04:26:44;9.45;;;3.53;;
12762;SDS011;6445;52.490;13.378;2023-12-20T04:29:09;14.93;;;3.35;;
12762;SDS011;6445;52.490;13.378;2023-12-20T04:31:35;9.38;;;3.75;;
12762;SDS011;6445;52.490;13.378;2023-12-20T04:34:00;16.65;;;3.47;;
12762;SDS011;6445;52.490;13.378;2023-12-20T04:36:25;13.13;;;3.20;;
12762;SDS011;6445;52.490;13.378;2023-12-20T04:38:53;13.80;;;3.60;;
12762;SDS011;6445;52.490;13.378;2023-12-20T04:41:18;13.60;;;3.30;;
12762;SDS011;6445;52.490;13.378;2023-12-20T04:43:44;15.52;;;3.05;;
12762;SDS011;6445;52.490;13.378;2023-12-20T04:46:09;14.13;;;3.20;;
12762;SDS011;6445;52.490;13.378;2023-12-20T04:48:34;13.85;;;3.25;;
12762;SDS011;6445;52.490;13.378;2023-12-20T04:50:59;9.10;;;3.58;;
12762;SDS011;6445;52.490;13.378;2023-12-20T04:53:25;13.23;;;3.03;;
12762;SDS011;6445;52.490;13.378;2023-12-20T04:55:50;15.05;;;3.33;;
12762;SDS011;6445;52.490;13.378;2023-12-20T04:58:16;13.10;;;3.10;;
12762;SDS011;6445;52.490;13.378;2023-12-20T05:00:41;15.05;;;3.78;;
12762;SDS011;6445;52.490;13.378;2023-12-20T05:03:06;9.18;;;3.13;;
12762;SDS011;6445;52.490;13.378;2023-12-20T05:05:31;12.05;;;3.25;;
12762;SDS011;6445;52.490;13.378;2023-12-20T05:07:57;12.05;;;3.55;;
12762;SDS011;6445;52.490;13.378;2023-12-20T05:10:22;16.25;;;3.35;;
12762;SDS011;6445;52.490;13.378;2023-12-20T05:12:47;16.65;;;4.22;;
12762;SDS011;6445;52.490;13.378;2023-12-20T05:15:12;7.72;;;3.20;;
12762;SDS011;6445;52.490;13.378;2023-12-20T05:17:38;12.32;;;2.70;;
12762;SDS011;6445;52.490;13.378;2023-12-20T05:20:03;8.50;;;3.05;;
12762;SDS011;6445;52.490;13.378;2023-12-20T05:22:29;13.43;;;3.40;;
12762;SDS011;6445;52.490;13.378;2023-12-20T05:24:54;7.60;;;3.30;;
12762;SDS011;6445;52.490;13.378;2023-12-20T05:27:19;7.97;;;3.25;;
12762;SDS011;6445;52.490;13.378;2023-12-20T05:29:45;7.85;;;3.08;;
12762;SDS011;6445;52.490;13.378;2023-12-20T05:32:10;11.82;;;3.55;;
12762;SDS011;6445;52.490;13.378;2023-12-20T05:34:35;10.90;;;3.00;;
12762;SDS011;6445;52.490;13.378;2023-12-20T05:37:01;10.27;;;2.97;;
12762;SDS011;6445;52.490;13.378;2023-12-20T05:39:26;9.27;;;3.00;;
12762;SDS011;6445;52.490;13.378;2023-12-20T05:41:52;8.65;;;2.47;;
12762;SDS011;6445;52.490;13.378;2023-12-20T05:44:17;9.88;;;2.80;;
12762;SDS011;6445;52.490;13.378;2023-12-20T05:46:42;11.57;;;3.45;;
12762;SDS011;6445;52.490;13.378;2023-12-20T05:49:08;14.77;;;3.20;;
12762;SDS011;6445;52.490;13.378;2023-12-20T05:51:34;11.05;;;3.20;;
12762;SDS011;6445;52.490;13.378;2023-12-20T05:53:59;6.75;;;2.70;;
12762;SDS011;6445;52.490;13.378;2023-12-20T05:56:24;12.60;;;2.70;;
12762;SDS011;6445;52.490;13.378;2023-12-20T05:58:49;14.15;;;3.08;;
12762;SDS011;6445;52.490;13.378;2023-12-20T06:01:15;12.40;;;3.13;;
12762;SDS011;6445;52.490;13.378;2023-12-20T06:03:43;14.43;;;3.22;;
12762;SDS011;6445;52.490;13.378;2023-12-20T06:06:09;17.95;;;2.90;;
12762;SDS011;6445;52.490;13.378;2023-12-20T06:08:35;9.02;;;3.10;;
12762;SDS011;6445;52.490;13.378;2023-12-20T06:11:01;13.15;;;3.30;;
12762;SDS011;6445;52.490;13.378;2023-12-20T06:13:26;9.23;;;3.28;;
12762;SDS011;6445;52.490;13.378;2023-12-20T06:15:52;15.65;;;3.40;;
12762;SDS011;6445;52.490;13.378;2023-12-20T06:18:17;12.60;;;3.75;;
12762;SDS011;6445;52.490;13.378;2023-12-20T06:20:42;12.63;;;2.63;;
12762;SDS011;6445;52.490;13.378;2023-12-20T06:23:07;14.60;;;3.55;;
12762;SDS011;6445;52.490;13.378;2023-12-20T06:25:33;15.18;;;3.22;;
12762;SDS011;6445;52.490;13.378;2023-12-20T06:27:58;7.20;;;2.47;;
12762;SDS011;6445;52.490;13.378;2023-12-20T06:30:23;6.55;;;3.05;;
12762;SDS011;6445;52.490;13.378;2023-12-20T06:32:50;18.55;;;3.85;;
12762;SDS011;6445;52.490;13.378;2023-12-20T06:35:15;12.77;;;3.67;;
12762;SDS011;6445;52.490;13.378;2023-12-20T06:37:41;16.13;;;3.58;;
12762;SDS011;6445;52.490;13.378;2023-12-20T06:40:08;9.60;;;3.00;;
12762;SDS011;6445;52.490;13.378;2023-12-20T06:42:34;11.70;;;3.33;;
12762;SDS011;6445;52.490;13.378;2023-12-20T06:44:59;14.80;;;3.22;;
12762;SDS011;6445;52.490;13.378;2023-12-20T06:47:25;10.38;;;3.15;;
12762;SDS011;6445;52.490;13.378;2023-12-20T06:49:51;7.85;;;3.20;;
12762;SDS011;6445;52.490;13.378;2023-12-20T06:52:16;11.57;;;3.08;;
12762;SDS011;6445;52.490;13.378;2023-12-20T06:54:41;14.93;;;3.55;;
12762;SDS011;6445;52.490;13.378;2023-12-20T06:57:07;12.88;;;3.63;;
12762;SDS011;6445;52.490;13.378;2023-12-20T06:59:32;9.68;;;3.75;;
12762;SDS011;6445;52.490;13.378;2023-12-20T07:01:57;13.05;;;3.88;;
12762;SDS011;6445;52.490;13.378;2023-12-20T07:04:22;12.40;;;3.60;;
12762;SDS011;6445;52.490;13.378;2023-12-20T07:06:48;12.55;;;3.35;;
12762;SDS011;6445;52.490;13.378;2023-12-20T07:09:16;12.82;;;3.03;;
12762;SDS011;6445;52.490;13.378;2023-12-20T07:11:41;8.70;;;3.25;;
12762;SDS011;6445;52.490;13.378;2023-12-20T07:14:06;8.50;;;2.92;;
12762;SDS011;6445;52.490;13.378;2023-12-20T07:16:32;11.80;;;3.53;;
12762;SDS011;6445;52.490;13.378;2023-12-20T07:18:57;15.13;;;4.25;;
12762;SDS011;6445;52.490;13.378;2023-12-20T07:21:22;10.40;;;3.60;;
12762;SDS011;6445;52.490;13.378;2023-12-20T07:23:48;11.45;;;2.97;;
12762;SDS011;6445;52.490;13.378;2023-12-20T07:26:13;10.27;;;3.13;;
12762;SDS011;6445;52.490;13.378;2023-12-20T07:28:40;9.68;;;3.30;;
12762;SDS011;6445;52.490;13.378;2023-12-20T07:31:05;15.15;;;3.85;;
12762;SDS011;6445;52.490;13.378;2023-12-20T07:33:31;12.25;;;3.58;;
12762;SDS011;6445;52.490;13.378;2023-12-20T07:35:56;7.97;;;2.80;;
12762;SDS011;6445;52.490;13.378;2023-12-20T07:38:21;8.32;;;2.92;;
12762;SDS011;6445;52.490;13.378;2023-12-20T07:40:46;9.32;;;3.10;;
12762;SDS011;6445;52.490;13.378;2023-12-20T07:43:12;9.20;;;2.78;;
12762;SDS011;6445;52.490;13.378;2023-12-20T07:45:37;12.18;;;3.30;;
12762;SDS011;6445;52.490;13.378;2023-12-20T07:48:03;14.88;;;3.63;;
12762;SDS011;6445;52.490;13.378;2023-12-20T07:50:28;8.57;;;3.08;;
12762;SDS011;6445;52.490;13.378;2023-12-20T07:52:54;14.20;;;2.58;;
12762;SDS011;6445;52.490;13.378;2023-12-20T07:55:19;9.13;;;3.40;;
12762;SDS011;6445;52.490;13.378;2023-12-20T07:57:44;9.70;;;2.97;;
12762;SDS011;6445;52.490;13.378;2023-12-20T08:00:10;13.60;;;3.08;;
12762;SDS011;6445;52.490;13.378;2023-12-20T08:02:35;12.25;;;3.15;;
12762;SDS011;6445;52.490;13.378;2023-12-20T08:05:00;14.38;;;2.88;;
12762;SDS011;6445;52.490;13.378;2023-12-20T08:07:26;10.50;;;2.70;;
12762;SDS011;6445;52.490;13.378;2023-12-20T08:09:51;11.90;;;3.20;;
12762;SDS011;6445;52.490;13.378;2023-12-20T08:12:16;7.55;;;2.40;;
12762;SDS011;6445;52.490;13.378;2023-12-20T08:14:42;8.75;;;2.78;;
12762;SDS011;6445;52.490;13.378;2023-12-20T08:17:07;7.40;;;2.80;;
12762;SDS011;6445;52.490;13.378;2023-12-20T08:19:32;15.95;;;2.63;;
12762;SDS011;6445;52.490;13.378;2023-12-20T08:21:58;6.15;;;2.33;;
12762;SDS011;6445;52.490;13.378;2023-12-20T08:24:23;7.65;;;2.75;;
12762;SDS011;6445;52.490;13.378;2023-12-20T08:26:48;8.70;;;2.80;;
12762;SDS011;6445;52.490;13.378;2023-12-20T08:29:13;8.95;;;2.80;;
12762;SDS011;6445;52.490;13.378;2023-12-20T08:31:39;12.23;;;2.88;;
12762;SDS011;6445;52.490;13.378;2023-12-20T08:34:04;13.07;;;3.00;;
12762;SDS011;6445;52.490;13.378;2023-12-20T08:36:29;8.60;;;2.78;;
12762;SDS011;6445;52.490;13.378;2023-12-20T08:38:55;12.85;;;2.45;;
12762;SDS011;6445;52.490;13.378;2023-12-20T08:41:20;12.82;;;3.10;;
12762;SDS011;6445;52.490;13.378;2023-12-20T08:43:45;8.00;;;2.30;;
12762;SDS011;6445;52.490;13.378;2023-12-20T08:46:11;9.48;;;2.28;;
12762;SDS011;6445;52.490;13.378;2023-12-20T08:48:36;6.25;;;2.60;;
12762;SDS011;6445;52.490;13.378;2023-12-20T08:51:02;9.32;;;2.70;;
12762;SDS011;6445;52.490;13.378;2023-12-20T08:53:27;6.30;;;2.10;;
12762;SDS011;6445;52.490;13.378;2023-12-20T08:55:53;9.40;;;2.50;;
12762;SDS011;6445;52.490;13.378;2023-12-20T08:58:18;8.35;;;2.40;;
12762;SDS011;6445;52.490;13.378;2023-12-20T09:00:43;9.02;;;2.40;;
12762;SDS011;6445;52.490;13.378;2023-12-20T09:03:09;10.80;;;2.20;;
12762;SDS011;6445;52.490;13.378;2023-12-20T09:05:35;8.85;;;2.72;;
12762;SDS011;6445;52.490;13.378;2023-12-20T09:08:00;8.30;;;2.70;;
12762;SDS011;6445;52.490;13.378;2023-12-20T09:10:25;9.95;;;2.60;;
12762;SDS011;6445;52.490;13.378;2023-12-20T09:12:51;8.07;;;2.50;;
12762;SDS011;6445;52.490;13.378;2023-12-20T09:15:21;5.68;;;2.22;;
12762;SDS011;6445;52.490;13.378;2023-12-20T09:17:46;6.63;;;2.20;;
12762;SDS011;6445;52.490;13.378;2023-12-20T09:20:12;7.13;;;2.45;;
12762;SDS011;6445;52.490;13.378;2023-12-20T09:22:38;8.18;;;2.10;;
12762;SDS011;6445;52.490;13.378;2023-12-20T09:25:04;8.65;;;2.45;;
12762;SDS011;6445;52.490;13.378;2023-12-20T09:27:30;8.50;;;2.35;;
12762;SDS011;6445;52.490;13.378;2023-12-20T09:29:55;9.63;;;2.55;;
12762;SDS011;6445;52.490;13.378;2023-12-20T09:32:21;12.65;;;2.60;;
12762;SDS011;6445;52.490;13.378;2023-12-20T09:34:47;8.90;;;2.70;;
12762;SDS011;6445;52.490;13.378;2023-12-20T09:37:12;14.55;;;2.80;;
12762;SDS011;6445;52.490;13.378;2023-12-20T09:39:41;8.98;;;2.70;;
12762;SDS011;6445;52.490;13.378;2023-12-20T09:42:10;6.22;;;2.33;;
12762;SDS011;6445;52.490;13.378;2023-12-20T09:44:37;11.20;;;2.50;;
12762;SDS011;6445;52.490;13.378;2023-12-20T09:47:05;8.85;;;3.10;;
12762;SDS011;6445;52.490;13.378;2023-12-20T09:49:31;12.90;;;2.97;;
12762;SDS011;6445;52.490;13.378;2023-12-20T09:51:57;11.15;;;2.17;;
12762;SDS011;6445;52.490;13.378;2023-12-20T09:54:24;10.85;;;3.13;;
12762;SDS011;6445;52.490;13.378;2023-12-20T09:56:51;9.27;;;2.53;;
12762;SDS011;6445;52.490;13.378;2023-12-20T09:59:16;9.98;;;3.13;;
12762;SDS011;6445;52.490;13.378;2023-12-20T10:01:42;10.27;;;2.72;;
12762;SDS011;6445;52.490;13.378;2023-12-20T10:04:08;7.22;;;2.60;;
12762;SDS011;6445;52.490;13.378;2023-12-20T10:06:43;10.18;;;3.00;;
12762;SDS011;6445;52.490;13.378;2023-12-20T10:09:10;17.13;;;3.50;;
12762;SDS011;6445;52.490;13.378;2023-12-20T10:11:36;9.55;;;2.70;;
12762;SDS011;6445;52.490;13.378;2023-12-20T10:14:05;10.52;;;2.92;;
12762;SDS011;6445;52.490;13.378;2023-12-20T10:16:31;7.45;;;2.63;;
12762;SDS011;6445;52.490;13.378;2023-12-20T10:18:58;14.50;;;2.78;;
12762;SDS011;6445;52.490;13.378;2023-12-20T10:21:24;10.57;;;2.30;;
12762;SDS011;6445;52.490;13.378;2023-12-20T10:23:51;8.95;;;2.67;;
12762;SDS011;6445;52.490;13.378;2023-12-20T10:26:24;8.52;;;2.25;;
12762;SDS011;6445;52.490;13.378;2023-12-20T10:28:51;7.80;;;2.40;;
12762;SDS011;6445;52.490;13.378;2023-12-20T10:31:31;7.65;;;2.45;;
12762;SDS011;6445;52.490;13.378;2023-12-20T10:34:00;8.38;;;2.53;;
12762;SDS011;6445;52.490;13.378;2023-12-20T10:36:27;8.45;;;2.60;;
12762;SDS011;6445;52.490;13.378;2023-12-20T10:38:54;12.13;;;2.60;;
12762;SDS011;6445;52.490;13.378;2023-12-20T10:41:30;11.75;;;3.25;;
12762;SDS011;6445;52.490;13.378;2023-12-20T10:43:58;9.35;;;2.45;;
12762;SDS011;6445;52.490;13.378;2023-12-20T10:46:26;7.78;;;1.92;;
12762;SDS011;6445;52.490;13.378;2023-12-20T10:48:55;10.60;;;2.90;;
12762;SDS011;6445;52.490;13.378;2023-12-20T10:51:21;11.50;;;2.97;;
12762;SDS011;6445;52.490;13.378;2023-12-20T10:53:48;8.10;;;2.83;;
12762;SDS011;6445;52.490;13.378;2023-12-20T10:56:17;8.82;;;3.05;;
12762;SDS011;6445;52.490;13.378;2023-12-20T10:58:43;8.18;;;2.50;;
12762;SDS011;6445;52.490;13.378;2023-12-20T11:01:10;6.93;;;2.60;;
12762;SDS011;6445;52.490;13.378;2023-12-20T11:03:38;7.28;;;2.80;;
12762;SDS011;6445;52.490;13.378;2023-12-20T11:06:24;7.68;;;3.40;;
12762;SDS011;6445;52.490;13.378;2023-12-20T11:09:01;6.70;;;2.40;;
12762;SDS011;6445;52.490;13.378;2023-12-20T11:11:37;10.15;;;3.17;;
12762;SDS011;6445;52.490;13.378;2023-12-20T11:14:11;8.55;;;2.50;;
12762;SDS011;6445;52.490;13.378;2023-12-20T11:16:42;11.77;;;2.55;;
12762;SDS011;6445;52.490;13.378;2023-12-20T11:19:07;12.00;;;3.08;;
12762;SDS011;6445;52.490;13.378;2023-12-20T11:21:33;10.38;;;2.72;;
12762;SDS011;6445;52.490;13.378;2023-12-20T11:23:59;14.13;;;3.00;;
12762;SDS011;6445;52.490;13.378;2023-12-20T11:26:28;9.23;;;2.90;;
12762;SDS011;6445;52.490;13.378;2023-12-20T11:29:00;15.50;;;3.60;;
12762;SDS011;6445;52.490;13.378;2023-12-20T11:31:54;11.25;;;3.30;;
12762;SDS011;6445;52.490;13.378;2023-12-20T11:34:19;10.02;;;2.80;;
12762;SDS011;6445;52.490;13.378;2023-12-20T11:36:45;10.80;;;2.92;;
12762;SDS011;6445;52.490;13.378;2023-12-20T11:39:10;12.52;;;2.97;;
12762;SDS011;6445;52.490;13.378;2023-12-20T11:41:36;7.72;;;2.72;;
12762;SDS011;6445;52.490;13.378;2023-12-20T11:44:01;10.50;;;2.60;;
12762;SDS011;6445;52.490;13.378;2023-12-20T11:46:29;9.90;;;2.88;;
12762;SDS011;6445;52.490;13.378;2023-12-20T11:48:56;11.02;;;2.85;;
12762;SDS011;6445;52.490;13.378;2023-12-20T11:51:21;5.43;;;2.50;;
12762;SDS011;6445;52.490;13.378;2023-12-20T11:53:50;9.38;;;2.83;;
12762;SDS011;6445;52.490;13.378;2023-12-20T11:56:17;11.60;;;2.88;;
12762;SDS011;6445;52.490;13.378;2023-12-20T11:58:42;8.18;;;2.85;;
12762;SDS011;6445;52.490;13.378;2023-12-20T12:01:08;8.18;;;3.15;;
12762;SDS011;6445;52.490;13.378;2023-12-20T12:03:33;12.10;;;2.95;;
12762;SDS011;6445;52.490;13.378;2023-12-20T12:05:58;7.40;;;2.70;;
12762;SDS011;6445;52.490;13.378;2023-12-20T12:08:25;10.45;;;2.80;;
12762;SDS011;6445;52.490;13.378;2023-12-20T12:10:51;9.07;;;2.50;;
12762;SDS011;6445;52.490;13.378;2023-12-20T12:13:16;7.18;;;2.80;;
12762;SDS011;6445;52.490;13.378;2023-12-20T12:15:42;7.57;;;2.70;;
12762;SDS011;6445;52.490;13.378;2023-12-20T12:18:08;7.22;;;2.42;;
12762;SDS011;6445;52.490;13.378;2023-12-20T12:20:33;8.63;;;2.92;;
12762;SDS011;6445;52.490;13.378;2023-12-20T12:23:03;10.38;;;2.63;;
12762;SDS011;6445;52.490;13.378;2023-12-20T12:25:29;9.88;;;2.58;;
12762;SDS011;6445;52.490;13.378;2023-12-20T12:27:56;9.07;;;2.83;;
12762;SDS011;6445;52.490;13.378;2023-12-20T12:30:23;7.03;;;2.47;;
12762;SDS011;6445;52.490;13.378;2023-12-20T12:32:48;10.25;;;3.13;;
12762;SDS011;6445;52.490;13.378;2023-12-20T12:35:14;7.43;;;2.88;;
12762;SDS011;6445;52.490;13.378;2023-12-20T12:37:40;10.73;;;3.17;;
12762;SDS011;6445;52.490;13.378;2023-12-20T12:40:09;10.40;;;3.22;;
12762;SDS011;6445;52.490;13.378;2023-12-20T12:42:36;8.23;;;3.22;;
12762;SDS011;6445;52.490;13.378;2023-12-20T12:45:01;7.68;;;3.30;;
12762;SDS011;6445;52.490;13.378;2023-12-20T12:47:27;11.35;;;3.67;;
12762;SDS011;6445;52.490;13.378;2023-12-20T12:49:52;14.05;;;3.17;;
12762;SDS011;6445;52.490;13.378;2023-12-20T12:52:18;10.15;;;3.97;;
12762;SDS011;6445;52.490;13.378;2023-12-20T12:54:44;11.00;;;3.10;;
12762;SDS011;6445;52.490;13.378;2023-12-20T12:57:10;9.10;;;3.58;;
12762;SDS011;6445;52.490;13.378;2023-12-20T12:59:36;8.85;;;3.38;;
12762;SDS011;6445;52.490;13.378;2023-12-20T13:02:01;15.05;;;3.65;;
12762;SDS011;6445;52.490;13.378;2023-12-20T13:04:26;8.57;;;3.63;;
12762;SDS011;6445;52.490;13.378;2023-12-20T13:06:52;7.78;;;3.30;;
12762;SDS011;6445;52.490;13.378;2023-12-20T13:09:17;11.75;;;5.35;;
12762;SDS011;6445;52.490;13.378;2023-12-20T13:11:44;8.60;;;4.55;;
12762;SDS011;6445;52.490;13.378;2023-12-20T13:14:09;12.93;;;4.38;;
12762;SDS011;6445;52.490;13.378;2023-12-20T13:16:39;13.60;;;4.43;;
12762;SDS011;6445;52.490;13.378;2023-12-20T13:19:04;9.45;;;4.35;;
12762;SDS011;6445;52.490;13.378;2023-12-20T13:21:30;14.00;;;4.70;;
12762;SDS011;6445;52.490;13.378;2023-12-20T13:23:55;10.48;;;4.53;;
12762;SDS011;6445;52.490;13.378;2023-12-20T13:26:21;9.95;;;4.40;;
12762;SDS011;6445;52.490;13.378;2023-12-20T13:28:46;13.85;;;4.57;;
12762;SDS011;6445;52.490;13.378;2023-12-20T13:31:11;13.05;;;5.10;;
12762;SDS011;6445;52.490;13.378;2023-12-20T13:33:37;6.00;;;3.50;;
12762;SDS011;6445;52.490;13.378;2023-12-20T13:36:02;6.85;;;2.10;;
12762;SDS011;6445;52.490;13.378;2023-12-20T13:38:29;4.30;;;2.17;;
12762;SDS011;6445;52.490;13.378;2023-12-20T13:40:54;4.97;;;2.50;;
12762;SDS011;6445;52.490;13.378;2023-12-20T13:43:20;3.28;;;1.50;;
12762;SDS011;6445;52.490;13.378;2023-12-20T13:45:46;4.75;;;1.80;;
12762;SDS011;6445;52.490;13.378;2023-12-20T13:48:12;3.08;;;1.52;;
12762;SDS011;6445;52.490;13.378;2023-12-20T13:50:38;5.35;;;1.85;;
12762;SDS011;6445;52.490;13.378;2023-12-20T13:53:03;5.00;;;1.90;;
12762;SDS011;6445;52.490;13.378;2023-12-20T13:55:29;4.25;;;1.90;;
12762;SDS011;6445;52.490;13.378;2023-12-20T13:57:55;4.38;;;2.22;;
12762;SDS011;6445;52.490;13.378;2023-12-20T14:00:20;4.53;;;1.90;;
12762;SDS011;6445;52.490;13.378;2023-12-20T14:02:46;4.50;;;1.90;;
12762;SDS011;6445;52.490;13.378;2023-12-20T14:05:11;5.50;;;1.70;;
12762;SDS011;6445;52.490;13.378;2023-12-20T14:07:36;6.43;;;2.03;;
12762;SDS011;6445;52.490;13.378;2023-12-20T14:10:02;5.90;;;2.20;;
12762;SDS011;6445;52.490;13.378;2023-12-20T14:12:28;4.97;;;1.98;;
12762;SDS011;6445;52.490;13.378;2023-12-20T14:14:53;5.85;;;1.80;;
12762;SDS011;6445;52.490;13.378;2023-12-20T14:17:21;2.10;;;1.63;;
12762;SDS011;6445;52.490;13.378;2023-12-20T14:19:46;7.72;;;2.63;;
12762;SDS011;6445;52.490;13.378;2023-12-20T14:22:12;1.85;;;1.20;;
12762;SDS011;6445;52.490;13.378;2023-12-20T14:24:41;3.97;;;1.33;;
12762;SDS011;6445;52.490;13.378;2023-12-20T14:27:06;4.20;;;1.20;;
12762;SDS011;6445;52.490;13.378;2023-12-20T14:29:32;1.70;;;0.82;;
12762;SDS011;6445;52.490;13.378;2023-12-20T14:31:57;4.05;;;1.33;;
12762;SDS011;6445;52.490;13.378;2023-12-20T14:34:22;2.22;;;1.20;;